sensor_id;sensor_type;location;lat;lon;timestamp;temperature;humidity
5868;DHT22;2960;49.142;7.768;2023-07-20T00:02:04;21.30;47.00
5868;DHT22;2960;49.142;7.768;2023-07-20T00:04:33;21.20;47.00
5868;DHT22;2960;49.142;7.768;2023-07-20T00:07:05;21.20;47.20
5868;DHT22;2960;49.142;7.768;2023-07-20T00:09:32;21.10;47.20
5868;DHT22;2960;49.142;7.768;2023-07-20T00:11:59;21.00;47.30
5868;DHT22;2960;49.142;7.768;2023-07-20T00:14:27;21.00;47.40
5868;DHT22;2960;49.142;7.768;2023-07-20T00:16:56;20.90;47.50
5868;DHT22;2960;49.142;7.768;2023-07-20T00:19:23;20.90;47.60
5868;DHT22;2960;49.142;7.768;2023-07-20T00:21:51;20.90;47.80
5868;DHT22;2960;49.142;7.768;2023-07-20T00:24:20;20.80;47.80
5868;DHT22;2960;49.142;7.768;2023-07-20T00:26:47;20.80;47.90
5868;DHT22;2960;49.142;7.768;2023-07-20T00:29:14;20.70;47.90
5868;DHT22;2960;49.142;7.768;2023-07-20T00:31:41;20.70;48.00
5868;DHT22;2960;49.142;7.768;2023-07-20T00:34:09;20.60;48.10
5868;DHT22;2960;49.142;7.768;2023-07-20T00:36:36;20.50;48.20
5868;DHT22;2960;49.142;7.768;2023-07-20T00:39:03;20.50;48.30
5868;DHT22;2960;49.142;7.768;2023-07-20T00:41:31;20.50;48.40
5868;DHT22;2960;49.142;7.768;2023-07-20T00:43:58;20.40;48.50
5868;DHT22;2960;49.142;7.768;2023-07-20T00:46:26;20.30;48.60
5868;DHT22;2960;49.142;7.768;2023-07-20T00:48:53;20.30;48.80
5868;DHT22;2960;49.142;7.768;2023-07-20T00:51:21;20.20;48.90
5868;DHT22;2960;49.142;7.768;2023-07-20T00:53:48;20.20;49.00
5868;DHT22;2960;49.142;7.768;2023-07-20T00:56:16;20.10;49.00
5868;DHT22;2960;49.142;7.768;2023-07-20T00:58:45;20.10;49.10
5868;DHT22;2960;49.142;7.768;2023-07-20T01:01:12;20.00;49.10
5868;DHT22;2960;49.142;7.768;2023-07-20T01:03:40;20.00;49.20
5868;DHT22;2960;49.142;7.768;2023-07-20T01:06:20;20.00;49.30
5868;DHT22;2960;49.142;7.768;2023-07-20T01:09:00;19.90;49.40
5868;DHT22;2960;49.142;7.768;2023-07-20T01:11:36;19.90;49.50
5868;DHT22;2960;49.142;7.768;2023-07-20T01:14:07;19.80;49.60
5868;DHT22;2960;49.142;7.768;2023-07-20T01:16:35;19.80;49.80
5868;DHT22;2960;49.142;7.768;2023-07-20T01:19:02;19.70;49.90
5868;DHT22;2960;49.142;7.768;2023-07-20T01:21:34;19.60;49.90
5868;DHT22;2960;49.142;7.768;2023-07-20T01:30:52;19.50;50.20
5868;DHT22;2960;49.142;7.768;2023-07-20T01:33:24;19.40;50.20
5868;DHT22;2960;49.142;7.768;2023-07-20T01:35:55;19.40;50.40
5868;DHT22;2960;49.142;7.768;2023-07-20T01:38:24;19.40;50.40
5868;DHT22;2960;49.142;7.768;2023-07-20T01:40:51;19.30;50.40
5868;DHT22;2960;49.142;7.768;2023-07-20T01:43:18;19.30;50.50
5868;DHT22;2960;49.142;7.768;2023-07-20T01:45:45;19.20;51.10
5868;DHT22;2960;49.142;7.768;2023-07-20T01:48:13;19.20;51.20
5868;DHT22;2960;49.142;7.768;2023-07-20T01:50:41;19.20;50.80
5868;DHT22;2960;49.142;7.768;2023-07-20T01:53:09;19.10;50.70
5868;DHT22;2960;49.142;7.768;2023-07-20T01:55:36;19.00;50.80
5868;DHT22;2960;49.142;7.768;2023-07-20T01:58:03;19.00;50.90
5868;DHT22;2960;49.142;7.768;2023-07-20T02:00:31;18.90;50.90
5868;DHT22;2960;49.142;7.768;2023-07-20T02:02:58;18.90;51.00
5868;DHT22;2960;49.142;7.768;2023-07-20T02:05:25;18.90;51.10
5868;DHT22;2960;49.142;7.768;2023-07-20T02:07:54;18.80;51.20
5868;DHT22;2960;49.142;7.768;2023-07-20T02:10:21;18.70;51.30
5868;DHT22;2960;49.142;7.768;2023-07-20T02:12:48;18.70;51.50
5868;DHT22;2960;49.142;7.768;2023-07-20T02:15:16;18.60;51.50
5868;DHT22;2960;49.142;7.768;2023-07-20T02:17:44;18.60;51.60
5868;DHT22;2960;49.142;7.768;2023-07-20T02:20:11;18.60;51.70
5868;DHT22;2960;49.142;7.768;2023-07-20T02:22:41;18.50;52.30
5868;DHT22;2960;49.142;7.768;2023-07-20T02:25:09;18.50;51.80
5868;DHT22;2960;49.142;7.768;2023-07-20T02:27:37;18.50;52.40
5868;DHT22;2960;49.142;7.768;2023-07-20T02:30:06;18.50;51.90
5868;DHT22;2960;49.142;7.768;2023-07-20T02:32:34;18.50;51.90
5868;DHT22;2960;49.142;7.768;2023-07-20T02:35:02;18.40;51.90
5868;DHT22;2960;49.142;7.768;2023-07-20T02:37:30;18.40;52.00
5868;DHT22;2960;49.142;7.768;2023-07-20T02:39:58;18.30;52.00
5868;DHT22;2960;49.142;7.768;2023-07-20T02:42:27;18.30;52.10
5868;DHT22;2960;49.142;7.768;2023-07-20T02:44:54;18.20;52.20
5868;DHT22;2960;49.142;7.768;2023-07-20T02:47:22;18.20;52.30
5868;DHT22;2960;49.142;7.768;2023-07-20T02:49:51;18.20;52.30
5868;DHT22;2960;49.142;7.768;2023-07-20T02:52:18;18.10;52.30
5868;DHT22;2960;49.142;7.768;2023-07-20T02:54:45;18.10;52.40
5868;DHT22;2960;49.142;7.768;2023-07-20T02:57:12;18.10;52.40
5868;DHT22;2960;49.142;7.768;2023-07-20T02:59:42;18.10;52.50
5868;DHT22;2960;49.142;7.768;2023-07-20T03:02:09;18.00;52.50
5868;DHT22;2960;49.142;7.768;2023-07-20T03:04:37;18.00;52.70
5868;DHT22;2960;49.142;7.768;2023-07-20T03:07:04;17.90;52.70
5868;DHT22;2960;49.142;7.768;2023-07-20T03:09:32;17.90;52.80
5868;DHT22;2960;49.142;7.768;2023-07-20T03:11:59;17.80;52.80
5868;DHT22;2960;49.142;7.768;2023-07-20T03:14:27;17.80;52.80
5868;DHT22;2960;49.142;7.768;2023-07-20T03:16:56;17.80;52.90
5868;DHT22;2960;49.142;7.768;2023-07-20T03:19:23;17.80;52.90
5868;DHT22;2960;49.142;7.768;2023-07-20T03:21:50;17.70;52.90
5868;DHT22;2960;49.142;7.768;2023-07-20T03:24:17;17.70;52.90
5868;DHT22;2960;49.142;7.768;2023-07-20T03:26:44;17.70;53.00
5868;DHT22;2960;49.142;7.768;2023-07-20T03:29:11;17.70;53.00
5868;DHT22;2960;49.142;7.768;2023-07-20T03:31:38;17.70;53.10
5868;DHT22;2960;49.142;7.768;2023-07-20T03:34:07;17.60;53.20
5868;DHT22;2960;49.142;7.768;2023-07-20T03:36:35;17.60;53.20
5868;DHT22;2960;49.142;7.768;2023-07-20T03:39:02;17.60;53.30
5868;DHT22;2960;49.142;7.768;2023-07-20T03:41:29;17.50;53.80
5868;DHT22;2960;49.142;7.768;2023-07-20T03:43:56;17.50;53.30
5868;DHT22;2960;49.142;7.768;2023-07-20T03:46:23;17.50;53.40
5868;DHT22;2960;49.142;7.768;2023-07-20T03:48:50;17.50;53.40
5868;DHT22;2960;49.142;7.768;2023-07-20T03:51:19;17.50;53.50
5868;DHT22;2960;49.142;7.768;2023-07-20T03:53:46;17.40;53.40
5868;DHT22;2960;49.142;7.768;2023-07-20T03:56:13;17.40;53.50
5868;DHT22;2960;49.142;7.768;2023-07-20T03:58:40;17.30;54.10
5868;DHT22;2960;49.142;7.768;2023-07-20T04:01:07;17.30;54.20
5868;DHT22;2960;49.142;7.768;2023-07-20T04:03:35;17.30;53.80
5868;DHT22;2960;49.142;7.768;2023-07-20T04:06:02;17.20;53.80
5868;DHT22;2960;49.142;7.768;2023-07-20T04:08:31;17.20;53.90
5868;DHT22;2960;49.142;7.768;2023-07-20T04:11:01;17.20;53.90
5868;DHT22;2960;49.142;7.768;2023-07-20T04:13:29;17.20;54.00
5868;DHT22;2960;49.142;7.768;2023-07-20T04:15:58;17.10;54.60
5868;DHT22;2960;49.142;7.768;2023-07-20T04:18:26;17.10;54.10
5868;DHT22;2960;49.142;7.768;2023-07-20T04:20:53;17.10;54.20
5868;DHT22;2960;49.142;7.768;2023-07-20T04:23:20;17.10;54.10
5868;DHT22;2960;49.142;7.768;2023-07-20T04:25:48;17.10;54.20
5868;DHT22;2960;49.142;7.768;2023-07-20T04:28:15;17.10;54.20
5868;DHT22;2960;49.142;7.768;2023-07-20T04:30:42;17.10;54.20
5868;DHT22;2960;49.142;7.768;2023-07-20T04:33:09;17.10;54.20
5868;DHT22;2960;49.142;7.768;2023-07-20T04:35:50;17.10;54.20
5868;DHT22;2960;49.142;7.768;2023-07-20T04:38:18;17.10;54.30
5868;DHT22;2960;49.142;7.768;2023-07-20T04:40:49;17.10;54.40
5868;DHT22;2960;49.142;7.768;2023-07-20T04:43:17;17.10;54.50
5868;DHT22;2960;49.142;7.768;2023-07-20T04:45:44;17.10;54.60
5868;DHT22;2960;49.142;7.768;2023-07-20T04:48:13;17.10;54.70
5868;DHT22;2960;49.142;7.768;2023-07-20T04:50:43;17.10;54.70
5868;DHT22;2960;49.142;7.768;2023-07-20T04:53:11;17.10;55.30
5868;DHT22;2960;49.142;7.768;2023-07-20T04:55:39;17.20;54.80
5868;DHT22;2960;49.142;7.768;2023-07-20T04:58:08;17.20;54.80
5868;DHT22;2960;49.142;7.768;2023-07-20T05:00:37;17.20;54.80
5868;DHT22;2960;49.142;7.768;2023-07-20T05:03:04;17.30;54.80
5868;DHT22;2960;49.142;7.768;2023-07-20T05:05:31;17.40;54.80
5868;DHT22;2960;49.142;7.768;2023-07-20T05:07:58;17.40;54.80
5868;DHT22;2960;49.142;7.768;2023-07-20T05:10:26;17.50;54.80
5868;DHT22;2960;49.142;7.768;2023-07-20T05:12:53;17.60;55.40
5868;DHT22;2960;49.142;7.768;2023-07-20T05:15:21;17.60;55.40
5868;DHT22;2960;49.142;7.768;2023-07-20T05:17:51;17.70;54.80
5868;DHT22;2960;49.142;7.768;2023-07-20T05:20:19;17.80;54.80
5868;DHT22;2960;49.142;7.768;2023-07-20T05:22:46;17.80;54.70
5868;DHT22;2960;49.142;7.768;2023-07-20T05:25:14;17.90;54.70
5868;DHT22;2960;49.142;7.768;2023-07-20T05:27:44;18.00;54.70
5868;DHT22;2960;49.142;7.768;2023-07-20T05:30:12;18.10;54.70
5868;DHT22;2960;49.142;7.768;2023-07-20T05:32:41;18.20;54.70
5868;DHT22;2960;49.142;7.768;2023-07-20T05:35:08;18.20;54.70
5868;DHT22;2960;49.142;7.768;2023-07-20T05:37:37;18.30;54.80
5868;DHT22;2960;49.142;7.768;2023-07-20T05:40:05;18.40;54.70
5868;DHT22;2960;49.142;7.768;2023-07-20T05:42:35;18.50;54.80
5868;DHT22;2960;49.142;7.768;2023-07-20T05:45:03;18.50;54.70
5868;DHT22;2960;49.142;7.768;2023-07-20T05:47:31;18.60;54.70
5868;DHT22;2960;49.142;7.768;2023-07-20T05:50:02;18.70;54.60
5868;DHT22;2960;49.142;7.768;2023-07-20T05:52:30;18.80;54.60
5868;DHT22;2960;49.142;7.768;2023-07-20T05:54:57;18.90;55.10
5868;DHT22;2960;49.142;7.768;2023-07-20T05:57:24;19.10;54.60
5868;DHT22;2960;49.142;7.768;2023-07-20T05:59:52;19.20;54.50
5868;DHT22;2960;49.142;7.768;2023-07-20T06:02:19;19.20;54.90
5868;DHT22;2960;49.142;7.768;2023-07-20T06:04:46;19.40;54.40
5868;DHT22;2960;49.142;7.768;2023-07-20T06:07:14;19.50;54.40
5868;DHT22;2960;49.142;7.768;2023-07-20T06:09:41;19.50;54.30
5868;DHT22;2960;49.142;7.768;2023-07-20T06:12:09;19.60;54.30
5868;DHT22;2960;49.142;7.768;2023-07-20T06:14:36;19.70;54.30
5868;DHT22;2960;49.142;7.768;2023-07-20T06:17:04;19.80;54.80
5868;DHT22;2960;49.142;7.768;2023-07-20T06:19:31;19.90;54.30
5868;DHT22;2960;49.142;7.768;2023-07-20T06:21:58;20.00;54.30
5868;DHT22;2960;49.142;7.768;2023-07-20T06:24:27;20.10;54.30
5868;DHT22;2960;49.142;7.768;2023-07-20T06:26:54;20.20;54.20
5868;DHT22;2960;49.142;7.768;2023-07-20T06:29:21;20.30;54.20
5868;DHT22;2960;49.142;7.768;2023-07-20T06:31:48;20.40;54.70
5868;DHT22;2960;49.142;7.768;2023-07-20T06:34:15;20.50;54.10
5868;DHT22;2960;49.142;7.768;2023-07-20T06:36:42;20.60;54.10
5868;DHT22;2960;49.142;7.768;2023-07-20T06:39:09;20.70;54.00
5868;DHT22;2960;49.142;7.768;2023-07-20T06:41:38;20.80;54.00
5868;DHT22;2960;49.142;7.768;2023-07-20T06:44:05;20.90;54.00
5868;DHT22;2960;49.142;7.768;2023-07-20T06:46:33;21.00;54.60
5868;DHT22;2960;49.142;7.768;2023-07-20T06:49:00;21.10;54.60
5868;DHT22;2960;49.142;7.768;2023-07-20T06:51:27;21.20;54.00
5868;DHT22;2960;49.142;7.768;2023-07-20T06:53:55;21.30;54.00
5868;DHT22;2960;49.142;7.768;2023-07-20T06:56:22;21.40;54.00
5868;DHT22;2960;49.142;7.768;2023-07-20T06:58:51;21.50;54.00
5868;DHT22;2960;49.142;7.768;2023-07-20T07:01:18;21.50;54.00
5868;DHT22;2960;49.142;7.768;2023-07-20T07:03:47;21.60;53.80
5868;DHT22;2960;49.142;7.768;2023-07-20T07:06:14;21.60;53.70
5868;DHT22;2960;49.142;7.768;2023-07-20T07:08:41;21.60;53.70
5868;DHT22;2960;49.142;7.768;2023-07-20T07:11:10;21.60;53.70
5868;DHT22;2960;49.142;7.768;2023-07-20T07:13:37;21.70;53.80
5868;DHT22;2960;49.142;7.768;2023-07-20T07:16:05;21.70;53.70
5868;DHT22;2960;49.142;7.768;2023-07-20T07:18:33;21.80;53.70
5868;DHT22;2960;49.142;7.768;2023-07-20T07:21:00;21.90;53.60
5868;DHT22;2960;49.142;7.768;2023-07-20T07:23:27;21.90;53.50
5868;DHT22;2960;49.142;7.768;2023-07-20T07:25:54;21.90;53.10
5868;DHT22;2960;49.142;7.768;2023-07-20T07:28:21;22.00;53.10
5868;DHT22;2960;49.142;7.768;2023-07-20T07:30:48;22.00;52.90
5868;DHT22;2960;49.142;7.768;2023-07-20T07:33:17;22.00;53.50
5868;DHT22;2960;49.142;7.768;2023-07-20T07:35:44;22.10;52.80
5868;DHT22;2960;49.142;7.768;2023-07-20T07:38:11;22.10;52.70
5868;DHT22;2960;49.142;7.768;2023-07-20T07:40:38;22.20;52.60
5868;DHT22;2960;49.142;7.768;2023-07-20T07:43:05;22.20;52.20
5868;DHT22;2960;49.142;7.768;2023-07-20T07:45:35;22.10;52.20
5868;DHT22;2960;49.142;7.768;2023-07-20T07:48:03;22.10;52.30
5868;DHT22;2960;49.142;7.768;2023-07-20T07:50:33;22.20;52.30
5868;DHT22;2960;49.142;7.768;2023-07-20T07:53:00;22.30;52.30
5868;DHT22;2960;49.142;7.768;2023-07-20T07:55:28;22.40;52.20
5868;DHT22;2960;49.142;7.768;2023-07-20T07:57:55;22.40;51.90
5868;DHT22;2960;49.142;7.768;2023-07-20T08:00:25;22.50;51.90
5868;DHT22;2960;49.142;7.768;2023-07-20T08:02:52;22.60;51.90
5868;DHT22;2960;49.142;7.768;2023-07-20T08:05:19;22.70;51.80
5868;DHT22;2960;49.142;7.768;2023-07-20T08:07:48;22.80;51.70
5868;DHT22;2960;49.142;7.768;2023-07-20T08:10:15;22.90;51.40
5868;DHT22;2960;49.142;7.768;2023-07-20T08:12:42;22.90;51.80
5868;DHT22;2960;49.142;7.768;2023-07-20T08:15:11;23.00;51.10
5868;DHT22;2960;49.142;7.768;2023-07-20T08:17:40;23.00;50.90
5868;DHT22;2960;49.142;7.768;2023-07-20T08:20:08;23.00;50.80
5868;DHT22;2960;49.142;7.768;2023-07-20T08:22:37;23.10;51.50
5868;DHT22;2960;49.142;7.768;2023-07-20T08:25:07;23.20;50.80
5868;DHT22;2960;49.142;7.768;2023-07-20T08:27:35;23.30;50.70
5868;DHT22;2960;49.142;7.768;2023-07-20T08:30:04;23.30;50.50
5868;DHT22;2960;49.142;7.768;2023-07-20T08:32:33;23.40;50.50
5868;DHT22;2960;49.142;7.768;2023-07-20T08:35:00;23.50;50.40
5868;DHT22;2960;49.142;7.768;2023-07-20T08:37:28;23.50;50.20
5868;DHT22;2960;49.142;7.768;2023-07-20T08:39:55;23.60;50.30
5868;DHT22;2960;49.142;7.768;2023-07-20T08:42:26;23.70;50.30
5868;DHT22;2960;49.142;7.768;2023-07-20T08:44:55;23.90;50.20
5868;DHT22;2960;49.142;7.768;2023-07-20T08:47:22;24.00;49.80
5868;DHT22;2960;49.142;7.768;2023-07-20T08:49:52;24.10;49.40
5868;DHT22;2960;49.142;7.768;2023-07-20T08:52:20;24.20;49.10
5868;DHT22;2960;49.142;7.768;2023-07-20T08:54:47;24.30;49.10
5868;DHT22;2960;49.142;7.768;2023-07-20T08:57:15;24.40;49.00
5868;DHT22;2960;49.142;7.768;2023-07-20T08:59:45;24.50;48.90
5868;DHT22;2960;49.142;7.768;2023-07-20T09:02:16;24.60;48.70
5868;DHT22;2960;49.142;7.768;2023-07-20T09:04:47;24.70;47.90
5868;DHT22;2960;49.142;7.768;2023-07-20T09:07:16;24.80;47.60
5868;DHT22;2960;49.142;7.768;2023-07-20T09:09:46;24.90;47.50
5868;DHT22;2960;49.142;7.768;2023-07-20T09:12:14;25.00;47.30
5868;DHT22;2960;49.142;7.768;2023-07-20T09:14:43;25.10;47.00
5868;DHT22;2960;49.142;7.768;2023-07-20T09:17:15;25.20;47.50
5868;DHT22;2960;49.142;7.768;2023-07-20T09:19:46;25.20;46.80
5868;DHT22;2960;49.142;7.768;2023-07-20T09:22:14;25.30;46.40
5868;DHT22;2960;49.142;7.768;2023-07-20T09:24:43;25.40;46.40
5868;DHT22;2960;49.142;7.768;2023-07-20T09:27:14;25.50;46.40
5868;DHT22;2960;49.142;7.768;2023-07-20T09:29:54;25.50;45.80
5868;DHT22;2960;49.142;7.768;2023-07-20T09:32:21;25.60;45.60
5868;DHT22;2960;49.142;7.768;2023-07-20T09:34:49;25.60;45.50
5868;DHT22;2960;49.142;7.768;2023-07-20T09:37:20;25.70;45.30
5868;DHT22;2960;49.142;7.768;2023-07-20T09:39:48;25.70;45.20
5868;DHT22;2960;49.142;7.768;2023-07-20T09:42:18;25.80;45.10
5868;DHT22;2960;49.142;7.768;2023-07-20T09:44:46;25.90;44.90
5868;DHT22;2960;49.142;7.768;2023-07-20T09:47:21;25.90;45.00
5868;DHT22;2960;49.142;7.768;2023-07-20T09:49:49;25.80;44.10
5868;DHT22;2960;49.142;7.768;2023-07-20T09:52:16;25.80;43.90
5868;DHT22;2960;49.142;7.768;2023-07-20T09:54:45;25.70;43.80
5868;DHT22;2960;49.142;7.768;2023-07-20T09:57:13;25.80;44.00
5868;DHT22;2960;49.142;7.768;2023-07-20T09:59:41;25.80;44.10
5868;DHT22;2960;49.142;7.768;2023-07-20T10:02:14;25.80;44.00
5868;DHT22;2960;49.142;7.768;2023-07-20T10:04:47;25.90;44.10
5868;DHT22;2960;49.142;7.768;2023-07-20T10:07:17;25.90;43.60
5868;DHT22;2960;49.142;7.768;2023-07-20T10:09:49;26.00;43.50
5868;DHT22;2960;49.142;7.768;2023-07-20T10:12:19;26.10;43.50
5868;DHT22;2960;49.142;7.768;2023-07-20T10:14:54;26.20;43.40
5868;DHT22;2960;49.142;7.768;2023-07-20T10:17:28;26.30;43.40
5868;DHT22;2960;49.142;7.768;2023-07-20T10:19:56;26.40;43.00
5868;DHT22;2960;49.142;7.768;2023-07-20T10:22:26;26.30;42.50
5868;DHT22;2960;49.142;7.768;2023-07-20T10:24:54;26.50;42.60
5868;DHT22;2960;49.142;7.768;2023-07-20T10:27:24;26.60;42.60
5868;DHT22;2960;49.142;7.768;2023-07-20T10:29:53;26.70;42.50
5868;DHT22;2960;49.142;7.768;2023-07-20T10:32:23;26.80;41.90
5868;DHT22;2960;49.142;7.768;2023-07-20T10:34:52;26.90;41.60
5868;DHT22;2960;49.142;7.768;2023-07-20T10:37:46;27.00;40.80
5868;DHT22;2960;49.142;7.768;2023-07-20T10:40:25;27.10;40.90
5868;DHT22;2960;49.142;7.768;2023-07-20T10:43:00;27.10;40.50
5868;DHT22;2960;49.142;7.768;2023-07-20T10:45:42;27.10;40.40
5868;DHT22;2960;49.142;7.768;2023-07-20T10:48:15;27.20;40.30
5868;DHT22;2960;49.142;7.768;2023-07-20T10:53:42;27.30;40.10
5868;DHT22;2960;49.142;7.768;2023-07-20T10:56:12;27.40;40.00
5868;DHT22;2960;49.142;7.768;2023-07-20T10:58:41;27.50;39.30
5868;DHT22;2960;49.142;7.768;2023-07-20T11:01:10;27.40;39.30
5868;DHT22;2960;49.142;7.768;2023-07-20T11:03:40;27.40;39.50
5868;DHT22;2960;49.142;7.768;2023-07-20T11:06:31;27.40;39.40
5868;DHT22;2960;49.142;7.768;2023-07-20T11:09:06;27.30;39.50
5868;DHT22;2960;49.142;7.768;2023-07-20T11:11:37;27.30;39.40
5868;DHT22;2960;49.142;7.768;2023-07-20T11:14:07;27.20;39.50
5868;DHT22;2960;49.142;7.768;2023-07-20T11:16:37;27.30;39.80
5868;DHT22;2960;49.142;7.768;2023-07-20T11:19:16;27.30;39.60
5868;DHT22;2960;49.142;7.768;2023-07-20T11:21:49;27.30;39.20
5868;DHT22;2960;49.142;7.768;2023-07-20T11:24:17;27.30;39.10
5868;DHT22;2960;49.142;7.768;2023-07-20T11:26:46;27.40;39.30
5868;DHT22;2960;49.142;7.768;2023-07-20T11:29:15;27.50;39.00
5868;DHT22;2960;49.142;7.768;2023-07-20T11:31:44;27.60;38.90
5868;DHT22;2960;49.142;7.768;2023-07-20T11:34:13;27.60;38.60
5868;DHT22;2960;49.142;7.768;2023-07-20T11:36:42;27.60;38.40
5868;DHT22;2960;49.142;7.768;2023-07-20T11:39:13;27.60;38.40
5868;DHT22;2960;49.142;7.768;2023-07-20T11:41:45;27.60;38.30
5868;DHT22;2960;49.142;7.768;2023-07-20T11:44:13;27.60;38.40
5868;DHT22;2960;49.142;7.768;2023-07-20T11:46:45;27.70;38.30
5868;DHT22;2960;49.142;7.768;2023-07-20T11:49:12;27.70;38.20
5868;DHT22;2960;49.142;7.768;2023-07-20T11:51:40;27.60;37.80
5868;DHT22;2960;49.142;7.768;2023-07-20T11:54:08;27.50;37.90
5868;DHT22;2960;49.142;7.768;2023-07-20T11:56:41;27.40;38.40
5868;DHT22;2960;49.142;7.768;2023-07-20T11:59:09;27.30;38.00
5868;DHT22;2960;49.142;7.768;2023-07-20T12:01:36;27.30;38.70
5868;DHT22;2960;49.142;7.768;2023-07-20T12:04:04;27.20;37.90
5868;DHT22;2960;49.142;7.768;2023-07-20T12:06:32;27.10;37.90
5868;DHT22;2960;49.142;7.768;2023-07-20T12:09:00;27.10;38.00
5868;DHT22;2960;49.142;7.768;2023-07-20T12:11:34;27.10;38.10
5868;DHT22;2960;49.142;7.768;2023-07-20T12:14:03;27.20;38.10
5868;DHT22;2960;49.142;7.768;2023-07-20T12:16:30;27.30;38.20
5868;DHT22;2960;49.142;7.768;2023-07-20T12:19:02;27.40;37.80
5868;DHT22;2960;49.142;7.768;2023-07-20T12:21:29;27.40;37.80
5868;DHT22;2960;49.142;7.768;2023-07-20T12:23:59;27.40;37.50
5868;DHT22;2960;49.142;7.768;2023-07-20T12:26:28;27.30;37.50
5868;DHT22;2960;49.142;7.768;2023-07-20T12:28:56;27.20;37.60
5868;DHT22;2960;49.142;7.768;2023-07-20T12:31:26;27.20;37.80
5868;DHT22;2960;49.142;7.768;2023-07-20T12:33:57;27.20;37.80
5868;DHT22;2960;49.142;7.768;2023-07-20T12:36:25;27.20;37.80
5868;DHT22;2960;49.142;7.768;2023-07-20T12:38:52;27.20;37.30
5868;DHT22;2960;49.142;7.768;2023-07-20T12:41:21;27.20;37.10
5868;DHT22;2960;49.142;7.768;2023-07-20T12:43:48;27.10;37.60
5868;DHT22;2960;49.142;7.768;2023-07-20T12:46:15;27.10;36.70
5868;DHT22;2960;49.142;7.768;2023-07-20T12:48:44;27.10;36.70
5868;DHT22;2960;49.142;7.768;2023-07-20T12:51:12;27.10;36.50
5868;DHT22;2960;49.142;7.768;2023-07-20T12:53:39;27.10;36.40
5868;DHT22;2960;49.142;7.768;2023-07-20T12:56:06;27.00;36.40
5868;DHT22;2960;49.142;7.768;2023-07-20T12:58:33;26.90;36.60
5868;DHT22;2960;49.142;7.768;2023-07-20T13:01:02;26.90;36.80
5868;DHT22;2960;49.142;7.768;2023-07-20T13:03:30;26.90;36.80
5868;DHT22;2960;49.142;7.768;2023-07-20T13:05:59;26.90;36.70
5868;DHT22;2960;49.142;7.768;2023-07-20T13:08:29;26.90;36.50
5868;DHT22;2960;49.142;7.768;2023-07-20T13:10:56;27.00;36.30
5868;DHT22;2960;49.142;7.768;2023-07-20T13:13:23;27.10;36.00
5868;DHT22;2960;49.142;7.768;2023-07-20T13:15:52;27.10;35.80
5868;DHT22;2960;49.142;7.768;2023-07-20T13:18:19;27.10;36.00
5868;DHT22;2960;49.142;7.768;2023-07-20T13:20:47;27.10;35.90
5868;DHT22;2960;49.142;7.768;2023-07-20T13:23:15;27.10;35.80
5868;DHT22;2960;49.142;7.768;2023-07-20T13:25:42;27.10;36.10
5868;DHT22;2960;49.142;7.768;2023-07-20T13:28:09;27.10;36.20
5868;DHT22;2960;49.142;7.768;2023-07-20T13:30:36;27.10;36.30
5868;DHT22;2960;49.142;7.768;2023-07-20T13:33:03;27.10;36.30
5868;DHT22;2960;49.142;7.768;2023-07-20T13:35:30;27.10;36.20
5868;DHT22;2960;49.142;7.768;2023-07-20T13:37:57;27.20;36.00
5868;DHT22;2960;49.142;7.768;2023-07-20T13:40:26;27.20;36.00
5868;DHT22;2960;49.142;7.768;2023-07-20T13:42:53;27.20;35.70
5868;DHT22;2960;49.142;7.768;2023-07-20T13:45:20;27.20;35.80
5868;DHT22;2960;49.142;7.768;2023-07-20T13:47:47;27.20;35.70
5868;DHT22;2960;49.142;7.768;2023-07-20T13:50:14;27.10;35.80
5868;DHT22;2960;49.142;7.768;2023-07-20T13:52:41;27.10;35.60
5868;DHT22;2960;49.142;7.768;2023-07-20T13:55:08;27.00;35.70
5868;DHT22;2960;49.142;7.768;2023-07-20T13:57:37;27.00;35.90
5868;DHT22;2960;49.142;7.768;2023-07-20T14:00:05;27.00;35.90
5868;DHT22;2960;49.142;7.768;2023-07-20T14:02:36;27.10;35.90
5868;DHT22;2960;49.142;7.768;2023-07-20T14:05:03;27.10;35.80
5868;DHT22;2960;49.142;7.768;2023-07-20T14:07:31;27.10;36.00
5868;DHT22;2960;49.142;7.768;2023-07-20T14:09:58;27.10;36.00
5868;DHT22;2960;49.142;7.768;2023-07-20T14:12:25;27.10;36.00
5868;DHT22;2960;49.142;7.768;2023-07-20T14:14:55;27.20;36.10
5868;DHT22;2960;49.142;7.768;2023-07-20T14:17:22;27.30;36.20
5868;DHT22;2960;49.142;7.768;2023-07-20T14:19:49;27.30;35.70
5868;DHT22;2960;49.142;7.768;2023-07-20T14:22:17;27.30;35.80
5868;DHT22;2960;49.142;7.768;2023-07-20T14:24:44;27.40;35.90
5868;DHT22;2960;49.142;7.768;2023-07-20T14:27:11;27.40;35.80
5868;DHT22;2960;49.142;7.768;2023-07-20T14:29:38;27.50;35.70
5868;DHT22;2960;49.142;7.768;2023-07-20T14:32:07;27.50;35.70
5868;DHT22;2960;49.142;7.768;2023-07-20T14:34:34;27.50;35.90
5868;DHT22;2960;49.142;7.768;2023-07-20T14:37:02;27.50;36.50
5868;DHT22;2960;49.142;7.768;2023-07-20T14:39:30;27.60;36.00
5868;DHT22;2960;49.142;7.768;2023-07-20T14:41:58;27.60;35.80
5868;DHT22;2960;49.142;7.768;2023-07-20T14:44:25;27.60;35.80
5868;DHT22;2960;49.142;7.768;2023-07-20T14:46:52;27.60;35.80
5868;DHT22;2960;49.142;7.768;2023-07-20T14:49:21;27.60;35.90
5868;DHT22;2960;49.142;7.768;2023-07-20T14:51:48;27.60;35.90
5868;DHT22;2960;49.142;7.768;2023-07-20T14:54:15;27.70;36.00
5868;DHT22;2960;49.142;7.768;2023-07-20T14:56:49;27.70;35.90
5868;DHT22;2960;49.142;7.768;2023-07-20T14:59:17;27.70;35.90
5868;DHT22;2960;49.142;7.768;2023-07-20T15:01:45;27.70;35.90
5868;DHT22;2960;49.142;7.768;2023-07-20T15:04:12;27.60;35.90
5868;DHT22;2960;49.142;7.768;2023-07-20T15:06:41;27.60;35.90
5868;DHT22;2960;49.142;7.768;2023-07-20T15:09:08;27.50;35.90
5868;DHT22;2960;49.142;7.768;2023-07-20T15:11:36;27.50;35.90
5868;DHT22;2960;49.142;7.768;2023-07-20T15:14:03;27.40;35.90
5868;DHT22;2960;49.142;7.768;2023-07-20T15:16:30;27.40;36.40
5868;DHT22;2960;49.142;7.768;2023-07-20T15:18:57;27.40;35.90
5868;DHT22;2960;49.142;7.768;2023-07-20T15:21:24;27.40;35.80
5868;DHT22;2960;49.142;7.768;2023-07-20T15:23:57;27.40;36.40
5868;DHT22;2960;49.142;7.768;2023-07-20T15:26:24;27.30;35.80
5868;DHT22;2960;49.142;7.768;2023-07-20T15:28:51;27.20;35.70
5868;DHT22;2960;49.142;7.768;2023-07-20T15:31:19;27.20;35.70
5868;DHT22;2960;49.142;7.768;2023-07-20T15:33:46;27.10;35.60
5868;DHT22;2960;49.142;7.768;2023-07-20T15:36:13;27.10;35.70
5868;DHT22;2960;49.142;7.768;2023-07-20T15:38:40;27.00;35.70
5868;DHT22;2960;49.142;7.768;2023-07-20T15:41:08;27.00;35.80
5868;DHT22;2960;49.142;7.768;2023-07-20T15:43:36;26.90;35.80
5868;DHT22;2960;49.142;7.768;2023-07-20T15:46:44;26.90;35.90
5868;DHT22;2960;49.142;7.768;2023-07-20T15:49:12;26.80;36.00
5868;DHT22;2960;49.142;7.768;2023-07-20T15:51:39;26.80;36.00
5868;DHT22;2960;49.142;7.768;2023-07-20T15:54:09;26.80;36.10
5868;DHT22;2960;49.142;7.768;2023-07-20T15:56:39;26.80;36.20
5868;DHT22;2960;49.142;7.768;2023-07-20T15:59:09;26.80;36.10
5868;DHT22;2960;49.142;7.768;2023-07-20T16:01:38;26.80;36.10
5868;DHT22;2960;49.142;7.768;2023-07-20T16:04:06;26.80;36.20
5868;DHT22;2960;49.142;7.768;2023-07-20T16:06:33;26.90;36.40
5868;DHT22;2960;49.142;7.768;2023-07-20T16:09:01;26.90;36.40
5868;DHT22;2960;49.142;7.768;2023-07-20T16:11:29;26.90;36.30
5868;DHT22;2960;49.142;7.768;2023-07-20T16:13:59;26.90;36.00
5868;DHT22;2960;49.142;7.768;2023-07-20T16:16:28;26.90;36.10
5868;DHT22;2960;49.142;7.768;2023-07-20T16:18:55;26.90;36.00
5868;DHT22;2960;49.142;7.768;2023-07-20T16:21:22;26.80;35.90